Time;durP1;ratioP1;P1;durP2;ratioP2;P2;SDS_P1;SDS_P2;PMS_P1;PMS_P2;Temp;Humidity;BMP_temperature;BMP_pressure;BME280_temperature;BME280_humidity;BME280_pressure;Samples;Min_cycle;Max_cycle;Signal;HPM_P1;HPM_P2
2021/06/29 00:01:35;;;;;;;;;;;;;;;17.27;51.95;100792.75;1629508;86;20655;-74
2021/06/29 00:04:01;;;;;;;;;;;;;;;17.06;52.08;100801.03;1622411;86;20274;-74
2021/06/29 00:06:27;;;;;;;;;;;;;;;16.98;52.42;100800.94;1643660;85;20685;-74
2021/06/29 00:08:52;;;;;;;;;;;;;;;16.97;52.69;100797.92;1623722;87;20702;-74
2021/06/29 00:11:18;;;;;;;;;;;;;;;16.99;52.82;100798.72;1637105;86;20272;-74
2021/06/29 00:13:45;;;;;;;;;;;;;;;16.95;52.83;100797.98;1637570;86;20161;-74
2021/06/29 00:16:12;;;;;;;;;;;;;;;16.96;52.84;100804.06;1638011;86;20523;-74
2021/06/29 00:18:38;;;;;;;;;;;;;;;16.96;52.94;100799.69;1628819;86;20143;-74
2021/06/29 00:21:04;;;;;;;;;;;;;;;16.91;52.92;100804.23;1631173;86;20165;-74
2021/06/29 00:23:37;;;;;;;;;;;;;;;16.87;53.12;100800.90;1637541;86;20125;-74
2021/06/29 00:25:58;;;;;;;;;;;;;;;16.87;53.18;100805.27;1637486;86;20515;-74
2021/06/29 00:28:25;;;;;;;;;;;;;;;16.87;53.24;100800.05;1642062;86;20185;-74
2021/06/29 00:30:51;;;;;;;;;;;;;;;16.82;53.35;100796.30;1637388;86;20578;-74
2021/06/29 00:33:17;;;;;;;;;;;;;;;16.83;53.52;100801.92;1638254;86;20157;-74
2021/06/29 00:35:44;;;;;;;;;;;;;;;16.85;53.53;100799.25;1638355;86;20148;-74
2021/06/29 00:38:10;;;;;;;;;;;;;;;16.85;53.49;100789.66;1637346;86;20158;-74
2021/06/29 00:40:36;;;;;;;;;;;;;;;16.84;53.53;100789.27;1637239;86;20157;-74
2021/06/29 00:43:03;;;;;;;;;;;;;;;16.83;53.47;100788.02;1626998;86;20125;-73
2021/06/29 00:45:29;;;;;;;;;;;;;;;16.79;53.59;100783.82;1638180;86;20135;-74
2021/06/29 00:47:55;;;;;;;;;;;;;;;16.75;53.69;100779.17;1637238;86;20539;-74
2021/06/29 00:50:21;;;;;;;;;;;;;;;16.74;53.74;100777.47;1629913;86;20149;-74
2021/06/29 00:52:48;;;;;;;;;;;;;;;16.71;53.83;100767.14;1636818;86;20519;-74
2021/06/29 00:55:14;;;;;;;;;;;;;;;16.71;53.91;100770.20;1634042;86;20164;-74
2021/06/29 00:57:41;;;;;;;;;;;;;;;16.69;53.94;100771.57;1634573;86;20207;-74
2021/06/29 01:00:08;;;;;;;;;;;;;;;16.58;53.54;100766.36;1636395;86;20102;-74
2021/06/29 01:02:34;;;;;;;;;;;;;;;16.42;53.92;100761.72;1640509;86;20427;-74
2021/06/29 01:05:00;;;;;;;;;;;;;;;16.42;54.13;100765.64;1636971;86;20176;-74
2021/06/29 01:07:26;;;;;;;;;;;;;;;16.40;54.15;100766.15;1627521;87;20676;-74
2021/06/29 01:09:52;;;;;;;;;;;;;;;16.41;54.30;100769.16;1636411;86;20177;-74
2021/06/29 01:12:18;;;;;;;;;;;;;;;16.41;54.33;100753.50;1636578;86;20126;-73
2021/06/29 01:14:44;;;;;;;;;;;;;;;16.42;54.33;100753.05;1642696;85;20669;-73
2021/06/29 01:17:10;;;;;;;;;;;;;;;16.39;54.41;100753.16;1637087;86;20602;-73
2021/06/29 01:19:42;;;;;;;;;;;;;;;16.38;54.39;100754.06;1636738;86;20247;-73
2021/06/29 01:22:06;;;;;;;;;;;;;;;16.36;54.45;100757.19;1635975;86;20102;-74
2021/06/29 01:24:33;;;;;;;;;;;;;;;16.34;54.50;100751.17;1636940;86;20145;-74
2021/06/29 01:27:54;;;;;;;;;;;;;;;16.30;54.57;100749.13;1637428;86;20134;-73
2021/06/29 01:32:18;;;;;;;;;;;;;;;16.27;54.65;100743.17;1637130;86;20588;-74
2021/06/29 01:34:45;;;;;;;;;;;;;;;16.24;54.69;100742.84;1636881;86;20714;-74
2021/06/29 01:37:12;;;;;;;;;;;;;;;16.21;54.66;100744.25;1626168;87;20452;-73
2021/06/29 01:40:06;;;;;;;;;;;;;;;16.17;54.70;100735.69;1635383;86;20141;-73
2021/06/29 01:42:30;;;;;;;;;;;;;;;16.15;54.79;100737.50;1624361;86;20144;-73
2021/06/29 01:44:57;;;;;;;;;;;;;;;16.13;54.80;100729.34;1636671;86;20570;-73
2021/06/29 01:47:50;;;;;;;;;;;;;;;16.09;54.88;100719.50;1636693;86;20449;-73
2021/06/29 01:50:16;;;;;;;;;;;;;;;16.05;54.93;100723.12;1636132;86;20425;-73
2021/06/29 01:52:43;;;;;;;;;;;;;;;15.95;55.02;100721.77;1636833;86;20090;-73
2021/06/29 01:55:11;;;;;;;;;;;;;;;15.89;55.16;100720.23;1632563;86;20599;-73
2021/06/29 01:57:41;;;;;;;;;;;;;;;15.88;55.29;100714.61;1636443;86;21258;-73
2021/06/29 02:00:09;;;;;;;;;;;;;;;15.88;55.42;100712.45;1636813;86;20109;-73
2021/06/29 02:02:36;;;;;;;;;;;;;;;15.90;55.51;100711.95;1639064;86;20482;-73
2021/06/29 02:05:03;;;;;;;;;;;;;;;15.91;55.41;100716.26;1635081;86;20161;-73
2021/06/29 02:07:29;;;;;;;;;;;;;;;15.90;55.36;100715.86;1632891;86;20493;-73
2021/06/29 02:09:56;;;;;;;;;;;;;;;15.87;55.36;100718.58;1634565;86;20158;-73
2021/06/29 02:12:22;;;;;;;;;;;;;;;15.83;55.43;100715.23;1634662;86;20192;-73
2021/06/29 02:14:48;;;;;;;;;;;;;;;15.80;55.52;100714.48;1624218;86;20460;-74
2021/06/29 02:17:14;;;;;;;;;;;;;;;15.78;55.64;100711.94;1634534;86;20470;-74
2021/06/29 02:19:40;;;;;;;;;;;;;;;15.77;55.70;100712.84;1634775;86;20243;-74
2021/06/29 02:22:06;;;;;;;;;;;;;;;15.75;55.71;100718.56;1634483;86;20461;-74
2021/06/29 02:24:33;;;;;;;;;;;;;;;15.75;55.78;100714.65;1632941;85;221527;-74
2021/06/29 02:27:00;;;;;;;;;;;;;;;15.65;55.67;100719.79;1634972;86;20177;-74
2021/06/29 02:29:25;;;;;;;;;;;;;;;15.56;55.77;100718.81;1631220;86;20123;-73
2021/06/29 02:31:51;;;;;;;;;;;;;;;15.47;55.99;100712.61;1624633;86;20231;-74
2021/06/29 02:34:17;;;;;;;;;;;;;;;15.48;56.07;100719.52;1638735;86;20354;-74
2021/06/29 02:36:44;;;;;;;;;;;;;;;15.49;56.10;100719.47;1634897;86;20212;-74
2021/06/29 02:39:10;;;;;;;;;;;;;;;15.50;56.11;100721.63;1634932;86;20578;-74
2021/06/29 02:41:36;;;;;;;;;;;;;;;15.50;56.16;100723.78;1631074;86;20195;-74
2021/06/29 02:44:03;;;;;;;;;;;;;;;15.50;56.21;100715.96;1634414;86;20862;-73
2021/06/29 02:46:29;;;;;;;;;;;;;;;15.50;56.29;100712.50;1634835;86;20497;-73
2021/06/29 02:48:56;;;;;;;;;;;;;;;15.52;56.31;100715.91;1634615;86;20519;-73
2021/06/29 02:51:23;;;;;;;;;;;;;;;15.50;56.29;100713.35;1636651;86;20426;-73
2021/06/29 02:53:49;;;;;;;;;;;;;;;15.42;56.24;100711.91;1637811;86;20114;-73
2021/06/29 02:59:00;;;;;;;;;;;;;;;15.36;56.48;100716.03;1639524;86;20445;-73
2021/06/29 03:01:26;;;;;;;;;;;;;;;15.36;56.53;100712.97;1639240;86;20433;-73
2021/06/29 03:03:52;;;;;;;;;;;;;;;15.39;56.53;100716.78;1639609;86;20591;-73
2021/06/29 03:06:18;;;;;;;;;;;;;;;15.37;56.61;100719.89;1639757;86;20160;-73
2021/06/29 03:08:44;;;;;;;;;;;;;;;15.39;56.63;100718.53;1637851;86;20763;-73
2021/06/29 03:11:10;;;;;;;;;;;;;;;15.39;56.73;100716.78;1638615;86;21199;-73
2021/06/29 03:13:36;;;;;;;;;;;;;;;15.39;56.82;100705.50;1631574;87;20625;-73
2021/06/29 03:16:02;;;;;;;;;;;;;;;15.37;56.90;100700.80;1639260;86;20168;-74
2021/06/29 03:18:28;;;;;;;;;;;;;;;15.39;56.93;100710.72;1639793;86;20174;-74
2021/06/29 03:20:54;;;;;;;;;;;;;;;15.37;56.92;100710.77;1639665;86;20421;-74
2021/06/29 03:23:20;;;;;;;;;;;;;;;15.41;57.07;100712.81;1639560;86;21085;-74
2021/06/29 03:25:46;;;;;;;;;;;;;;;15.45;57.16;100713.97;1637464;86;20799;-74
2021/06/29 03:28:14;;;;;;;;;;;;;;;15.52;57.21;100715.91;1640497;86;20188;-74
2021/06/29 03:30:40;;;;;;;;;;;;;;;15.58;57.19;100721.39;1636998;86;20546;-74
2021/06/29 03:33:06;;;;;;;;;;;;;;;15.61;57.21;100723.86;1642682;86;20159;-74
2021/06/29 03:35:32;;;;;;;;;;;;;;;15.64;57.31;100723.75;1637151;86;20177;-74
2021/06/29 03:37:58;;;;;;;;;;;;;;;15.65;57.32;100723.70;1637661;86;20451;-74
2021/06/29 03:40:24;;;;;;;;;;;;;;;15.70;57.39;100723.54;1630989;86;20211;-74
2021/06/29 03:42:50;;;;;;;;;;;;;;;15.74;57.44;100725.13;1637119;86;21011;-73
2021/06/29 03:45:17;;;;;;;;;;;;;;;15.79;57.44;100726.67;1637966;86;20252;-73
2021/06/29 03:47:43;;;;;;;;;;;;;;;15.82;57.49;100725.71;1634301;86;21037;-73
2021/06/29 03:50:10;;;;;;;;;;;;;;;15.86;57.53;100726.00;1650972;86;20129;-74
2021/06/29 03:52:37;;;;;;;;;;;;;;;15.89;57.62;100730.66;1637523;86;20989;-74
2021/06/29 03:55:06;;;;;;;;;;;;;;;15.94;57.69;100734.41;1650782;85;20529;-74
2021/06/29 03:57:32;;;;;;;;;;;;;;;15.99;57.77;100731.63;1624179;87;20240;-73
2021/06/29 03:59:58;;;;;;;;;;;;;;;16.05;57.77;100737.93;1634685;86;20275;-73
2021/06/29 04:02:24;;;;;;;;;;;;;;;16.05;57.90;100733.56;1632403;86;20211;-73
2021/06/29 04:04:50;;;;;;;;;;;;;;;16.12;57.92;100732.40;1637949;86;21500;-73
2021/06/29 04:07:17;;;;;;;;;;;;;;;16.19;57.99;100733.88;1634947;86;20518;-73
2021/06/29 04:09:43;;;;;;;;;;;;;;;16.31;58.15;100740.39;1633767;86;20520;-73
2021/06/29 04:12:10;;;;;;;;;;;;;;;16.59;58.46;100734.98;1634582;86;20898;-73
2021/06/29 04:14:36;;;;;;;;;;;;;;;17.00;58.44;100733.34;1635653;86;20584;-73
2021/06/29 04:17:02;;;;;;;;;;;;;;;17.36;58.38;100727.03;1635375;86;20719;-73
2021/06/29 04:19:29;;;;;;;;;;;;;;;17.65;58.16;100732.36;1635050;86;20141;-74
2021/06/29 04:21:55;;;;;;;;;;;;;;;17.87;58.00;100729.63;1635002;86;20500;-74
2021/06/29 04:24:21;;;;;;;;;;;;;;;17.99;57.89;100730.39;1634665;86;20152;-74
2021/06/29 04:26:47;;;;;;;;;;;;;;;18.12;57.91;100734.62;1634656;86;20212;-74
2021/06/29 04:29:13;;;;;;;;;;;;;;;18.29;57.93;100729.89;1634937;86;20188;-74
2021/06/29 04:31:39;;;;;;;;;;;;;;;18.42;57.84;100729.26;1633106;86;20511;-74
2021/06/29 04:34:05;;;;;;;;;;;;;;;18.48;57.77;100729.44;1634918;86;20499;-74
2021/06/29 04:36:32;;;;;;;;;;;;;;;18.51;57.75;100725.36;1626901;86;20461;-74
2021/06/29 04:38:58;;;;;;;;;;;;;;;18.57;57.80;100720.30;1632273;86;20448;-74
2021/06/29 04:41:24;;;;;;;;;;;;;;;18.67;57.84;100715.89;1627631;85;20176;-74
2021/06/29 04:43:50;;;;;;;;;;;;;;;18.81;57.88;100719.13;1635951;86;20196;-74
2021/06/29 04:46:16;;;;;;;;;;;;;;;18.94;57.88;100720.23;1636499;86;20156;-73
2021/06/29 04:48:42;;;;;;;;;;;;;;;19.06;57.82;100723.56;1634525;86;20165;-74
2021/06/29 04:51:08;;;;;;;;;;;;;;;19.22;57.88;100715.80;1636112;86;20162;-74
2021/06/29 04:53:34;;;;;;;;;;;;;;;19.41;57.82;100718.30;1636416;86;20089;-74
2021/06/29 04:56:00;;;;;;;;;;;;;;;19.58;57.80;100717.48;1634430;86;20176;-74
2021/06/29 04:58:26;;;;;;;;;;;;;;;19.78;57.87;100715.48;1635623;86;20161;-74
2021/06/29 05:00:52;;;;;;;;;;;;;;;20.11;57.95;100722.50;1631263;86;20177;-74
2021/06/29 05:03:18;;;;;;;;;;;;;;;20.59;58.04;100729.49;1636676;86;20196;-74
2021/06/29 05:05:44;;;;;;;;;;;;;;;21.27;58.06;100724.72;1632244;86;20265;-74
2021/06/29 05:08:13;;;;;;;;;;;;;;;22.02;57.83;100727.61;1634635;86;20097;-74
2021/06/29 05:10:39;;;;;;;;;;;;;;;22.78;57.57;100728.05;1627742;86;20112;-74
2021/06/29 05:13:05;;;;;;;;;;;;;;;23.54;56.97;100715.95;1631001;87;20114;-74
2021/06/29 05:15:31;;;;;;;;;;;;;;;24.19;56.30;100721.06;1636060;87;20745;-74
2021/06/29 05:17:57;;;;;;;;;;;;;;;24.75;56.15;100723.59;1636079;86;20207;-73
2021/06/29 05:20:23;;;;;;;;;;;;;;;25.39;55.87;100720.11;1635656;86;20162;-74
2021/06/29 05:22:49;;;;;;;;;;;;;;;26.01;55.57;100722.33;1634170;86;20193;-75
2021/06/29 05:25:15;;;;;;;;;;;;;;;26.63;55.21;100708.02;1629126;87;20539;-75
2021/06/29 05:27:42;;;;;;;;;;;;;;;27.21;54.89;100708.51;1632521;86;20193;-75
2021/06/29 05:30:10;;;;;;;;;;;;;;;27.83;54.76;100700.98;1632211;86;20215;-74
2021/06/29 05:32:36;;;;;;;;;;;;;;;28.51;54.49;100700.70;1635168;86;20185;-74
2021/06/29 05:35:03;;;;;;;;;;;;;;;29.09;54.20;100696.73;1621415;86;20197;-74
2021/06/29 05:37:30;;;;;;;;;;;;;;;29.61;53.94;100698.03;1631047;86;20154;-74
2021/06/29 05:39:56;;;;;;;;;;;;;;;29.97;53.64;100696.82;1634375;86;20193;-74
2021/06/29 05:42:22;;;;;;;;;;;;;;;30.48;53.51;100695.41;1633786;86;20193;-74
2021/06/29 05:44:48;;;;;;;;;;;;;;;30.99;53.18;100696.07;1637297;86;20186;-74
2021/06/29 05:47:20;;;;;;;;;;;;;;;31.32;52.80;100692.31;1634322;86;20165;-74
2021/06/29 05:49:42;;;;;;;;;;;;;;;31.79;52.44;100686.08;1634220;86;20102;-74
2021/06/29 05:52:08;;;;;;;;;;;;;;;32.22;52.09;100680.61;1636252;86;20098;-74
2021/06/29 05:54:34;;;;;;;;;;;;;;;32.48;52.16;100671.09;1634959;86;20221;-74
2021/06/29 05:57:00;;;;;;;;;;;;;;;32.79;51.69;100668.63;1634115;86;20177;-74
2021/06/29 05:59:26;;;;;;;;;;;;;;;33.24;51.35;100668.60;1633601;86;20228;-74
2021/06/29 06:01:53;;;;;;;;;;;;;;;33.64;50.82;100680.25;1632388;86;20221;-76
2021/06/29 06:04:19;;;;;;;;;;;;;;;33.97;50.70;100684.99;1635386;86;20207;-74
2021/06/29 06:06:46;;;;;;;;;;;;;;;34.33;50.39;100684.80;1633258;86;20197;-75
2021/06/29 06:09:12;;;;;;;;;;;;;;;34.39;50.13;100685.44;1629878;86;20212;-74
2021/06/29 06:11:38;;;;;;;;;;;;;;;34.78;49.97;100685.84;1631606;86;20221;-75
2021/06/29 06:14:04;;;;;;;;;;;;;;;35.12;49.58;100690.26;1633360;86;20185;-76
2021/06/29 06:16:30;;;;;;;;;;;;;;;35.09;49.11;100685.25;1634500;86;20166;-76
2021/06/29 06:18:56;;;;;;;;;;;;;;;35.07;48.84;100691.31;1634508;86;20184;-76
2021/06/29 06:21:23;;;;;;;;;;;;;;;35.33;48.63;100692.79;1626904;86;20141;-76
2021/06/29 06:23:49;;;;;;;;;;;;;;;35.54;48.21;100688.84;1628715;86;20217;-76
2021/06/29 06:26:15;;;;;;;;;;;;;;;35.87;47.96;100687.98;1619335;86;20247;-76
2021/06/29 06:28:41;;;;;;;;;;;;;;;35.93;47.41;100689.89;1618931;86;20195;-76
2021/06/29 06:31:07;;;;;;;;;;;;;;;36.10;47.16;100691.86;1618799;87;20195;-76
2021/06/29 06:33:34;;;;;;;;;;;;;;;35.93;46.57;100700.66;1623057;86;20224;-76
2021/06/29 06:36:00;;;;;;;;;;;;;;;36.03;46.49;100701.72;1628644;86;20181;-76
2021/06/29 06:38:26;;;;;;;;;;;;;;;36.25;45.95;100694.52;1631546;86;20141;-76
2021/06/29 06:40:52;;;;;;;;;;;;;;;36.34;45.51;100699.64;1628844;86;20196;-76
2021/06/29 06:43:18;;;;;;;;;;;;;;;36.42;45.29;100696.80;1634200;86;20197;-75
2021/06/29 06:45:44;;;;;;;;;;;;;;;36.36;44.72;100702.98;1635553;86;20216;-76
2021/06/29 06:48:10;;;;;;;;;;;;;;;36.35;44.27;100704.00;1634476;86;20200;-76
2021/06/29 06:50:37;;;;;;;;;;;;;;;36.24;43.85;100709.84;1634468;86;20201;-76
2021/06/29 06:53:03;;;;;;;;;;;;;;;36.21;43.76;100708.05;1634535;86;20230;-76
2021/06/29 06:55:29;;;;;;;;;;;;;;;36.10;43.39;100708.02;1635189;86;20224;-76
2021/06/29 06:57:56;;;;;;;;;;;;;;;36.00;43.11;100705.62;1638158;86;20244;-76
2021/06/29 07:00:24;;;;;;;;;;;;;;;35.94;42.94;100708.22;1638381;86;20193;-76
2021/06/29 07:02:51;;;;;;;;;;;;;;;35.81;42.24;100701.67;1639857;86;20117;-76
2021/06/29 07:05:17;;;;;;;;;;;;;;;35.81;42.07;100703.53;1630347;88;20249;-76
2021/06/29 07:07:43;;;;;;;;;;;;;;;35.97;41.87;100707.34;1630086;87;20312;-76
2021/06/29 07:10:10;;;;;;;;;;;;;;;35.78;41.38;100700.70;1617644;87;20197;-76
2021/06/29 07:12:36;;;;;;;;;;;;;;;35.81;41.42;100699.49;1622956;88;20177;-76
2021/06/29 07:15:04;;;;;;;;;;;;;;;36.01;41.10;100695.69;1615102;87;20191;-76
2021/06/29 07:17:33;;;;;;;;;;;;;;;36.15;40.81;100701.55;1629249;86;20189;-76
2021/06/29 07:19:59;;;;;;;;;;;;;;;36.25;40.50;100697.22;1629192;88;20134;-76
2021/06/29 07:22:25;;;;;;;;;;;;;;;36.36;40.30;100698.94;1631562;86;20189;-76
2021/06/29 07:24:52;;;;;;;;;;;;;;;36.52;40.10;100691.09;1630524;87;20177;-76
2021/06/29 07:27:17;;;;;;;;;;;;;;;36.59;39.92;100686.61;1630599;87;20188;-76
2021/06/29 07:29:44;;;;;;;;;;;;;;;36.76;39.80;100684.02;1619826;86;20170;-76
2021/06/29 07:32:10;;;;;;;;;;;;;;;36.92;39.47;100685.58;1628401;87;20286;-76
2021/06/29 07:34:37;;;;;;;;;;;;;;;37.12;39.48;100677.65;1625421;87;20197;-76
2021/06/29 07:37:03;;;;;;;;;;;;;;;37.30;39.26;100679.89;1630503;87;20258;-76
2021/06/29 07:39:30;;;;;;;;;;;;;;;37.30;39.07;100681.23;1629915;86;20198;-76
2021/06/29 07:41:56;;;;;;;;;;;;;;;37.26;39.02;100679.96;1630123;86;20184;-76
2021/06/29 07:44:22;;;;;;;;;;;;;;;37.22;38.65;100680.87;1628396;86;20241;-75
2021/06/29 07:46:48;;;;;;;;;;;;;;;37.34;38.51;100679.30;1627210;88;20178;-75
2021/06/29 07:49:14;;;;;;;;;;;;;;;37.51;38.38;100675.73;1629810;87;20208;-75
2021/06/29 07:51:40;;;;;;;;;;;;;;;37.76;37.99;100676.11;1630085;86;20201;-75
2021/06/29 07:54:06;;;;;;;;;;;;;;;37.91;37.43;100673.27;1629377;87;20151;-74
2021/06/29 07:56:37;;;;;;;;;;;;;;;37.88;37.09;100673.68;1623411;88;20186;-73
2021/06/29 07:59:03;;;;;;;;;;;;;;;37.68;36.75;100674.93;1630142;87;20637;-73
2021/06/29 08:01:30;;;;;;;;;;;;;;;37.64;36.74;100672.28;1627848;87;20210;-73
2021/06/29 08:03:56;;;;;;;;;;;;;;;37.61;36.25;100668.63;1623613;87;20190;-74
2021/06/29 08:06:22;;;;;;;;;;;;;;;37.48;36.02;100669.39;1629561;87;20229;-74
2021/06/29 08:08:48;;;;;;;;;;;;;;;37.35;35.86;100671.52;1630089;88;20220;-74
2021/06/29 08:11:14;;;;;;;;;;;;;;;37.19;35.66;100665.56;1629863;87;20158;-74
2021/06/29 08:13:40;;;;;;;;;;;;;;;37.14;35.47;100658.06;1629433;88;20180;-74
2021/06/29 08:16:08;;;;;;;;;;;;;;;37.10;35.34;100656.78;1628193;88;20157;-74
2021/06/29 08:18:34;;;;;;;;;;;;;;;37.07;35.17;100658.02;1621482;87;20104;-74
2021/06/29 08:21:00;;;;;;;;;;;;;;;36.82;34.94;100659.50;1611821;88;20268;-74
2021/06/29 08:23:27;;;;;;;;;;;;;;;36.69;34.87;100659.34;1620803;88;20193;-74
2021/06/29 08:25:54;;;;;;;;;;;;;;;36.51;34.82;100658.96;1620065;88;20237;-74
2021/06/29 08:28:20;;;;;;;;;;;;;;;36.41;34.72;100656.07;1647304;86;20255;-74
2021/06/29 08:30:47;;;;;;;;;;;;;;;36.39;34.42;100654.11;1627041;86;20199;-74
2021/06/29 08:33:13;;;;;;;;;;;;;;;36.27;34.18;100657.50;1632424;86;20245;-74
2021/06/29 08:35:42;;;;;;;;;;;;;;;36.09;33.93;100658.72;1635684;86;20197;-74
2021/06/29 08:38:08;;;;;;;;;;;;;;;36.06;34.01;100655.57;1638447;87;20193;-74
2021/06/29 08:40:38;;;;;;;;;;;;;;;35.90;33.87;100653.93;1637616;87;20187;-74
2021/06/29 08:43:05;;;;;;;;;;;;;;;35.77;33.71;100653.25;1634971;86;20189;-72
2021/06/29 08:45:32;;;;;;;;;;;;;;;35.72;33.74;100652.14;1635351;86;20157;-72
2021/06/29 08:47:59;;;;;;;;;;;;;;;35.56;33.28;100653.68;1628868;86;20188;-72
2021/06/29 08:50:30;;;;;;;;;;;;;;;35.38;33.13;100646.81;1632542;87;20192;-72
2021/06/29 08:52:54;;;;;;;;;;;;;;;35.26;33.01;100650.14;1626806;86;20116;-73
2021/06/29 08:55:21;;;;;;;;;;;;;;;35.10;32.89;100653.31;1622680;87;20102;-73
2021/06/29 08:57:47;;;;;;;;;;;;;;;35.05;32.71;100653.03;1626408;86;20112;-73
2021/06/29 09:00:13;;;;;;;;;;;;;;;35.15;32.89;100643.36;1620380;87;20148;-73
2021/06/29 09:02:41;;;;;;;;;;;;;;;35.54;32.62;100647.14;1625057;86;20437;-73
2021/06/29 09:05:22;;;;;;;;;;;;;;;36.03;32.57;100644.67;1631660;87;20264;-74
2021/06/29 09:08:00;;;;;;;;;;;;;;;36.47;32.29;100647.73;1651412;86;20141;-74
2021/06/29 09:10:26;;;;;;;;;;;;;;;36.91;32.10;100648.06;1633081;86;20089;-74
2021/06/29 09:12:54;;;;;;;;;;;;;;;37.32;32.09;100642.23;1616190;86;20190;-74
2021/06/29 09:15:44;;;;;;;;;;;;;;;37.67;31.96;100637.66;1637632;86;20098;-74
2021/06/29 09:18:16;;;;;;;;;;;;;;;37.91;31.85;100640.36;1632137;87;20570;-74
2021/06/29 09:20:46;;;;;;;;;;;;;;;38.12;31.63;100634.47;1633253;87;20118;-74
2021/06/29 09:23:21;;;;;;;;;;;;;;;38.03;31.38;100637.36;1640008;87;20133;-73
2021/06/29 09:25:49;;;;;;;;;;;;;;;37.84;31.35;100633.27;1640450;86;20113;-73
2021/06/29 09:28:21;;;;;;;;;;;;;;;37.48;31.14;100632.12;1640378;86;20117;-73
2021/06/29 09:30:58;;;;;;;;;;;;;;;36.93;31.16;100637.88;1640749;87;21304;-73
2021/06/29 09:33:26;;;;;;;;;;;;;;;36.42;31.39;100626.76;1639933;86;20165;-73
2021/06/29 09:35:55;;;;;;;;;;;;;;;35.72;30.97;100622.55;1648261;86;20101;-73
2021/06/29 09:38:26;;;;;;;;;;;;;;;35.23;30.96;100629.00;1641405;86;20150;-73
2021/06/29 09:41:04;;;;;;;;;;;;;;;34.71;30.76;100626.63;1639350;86;20109;-73
2021/06/29 09:43:33;;;;;;;;;;;;;;;34.23;30.46;100626.47;1634822;87;20174;-72
2021/06/29 09:46:02;;;;;;;;;;;;;;;33.88;30.29;100627.84;1637854;87;20582;-72
2021/06/29 09:48:31;;;;;;;;;;;;;;;33.60;30.26;100620.75;1640977;87;20134;-72
2021/06/29 09:51:02;;;;;;;;;;;;;;;33.31;30.23;100626.70;1640922;86;20090;-72
2021/06/29 09:53:30;;;;;;;;;;;;;;;33.10;30.15;100619.20;1638978;86;20177;-74
2021/06/29 09:56:02;;;;;;;;;;;;;;;32.80;29.99;100609.20;1640110;86;20133;-74
2021/06/29 09:58:29;;;;;;;;;;;;;;;32.60;30.07;100606.02;1636890;86;20197;-74
2021/06/29 10:00:57;;;;;;;;;;;;;;;32.51;29.93;100605.18;1640224;86;20122;-75
2021/06/29 10:03:37;;;;;;;;;;;;;;;32.39;29.82;100608.34;1649291;86;20097;-75
2021/06/29 10:06:09;;;;;;;;;;;;;;;32.28;29.78;100608.66;1640192;86;20130;-75
2021/06/29 10:08:36;;;;;;;;;;;;;;;32.22;29.73;100603.50;1634713;86;20961;-75
2021/06/29 10:11:08;;;;;;;;;;;;;;;32.17;29.78;100605.30;1638216;86;20249;-75
2021/06/29 10:13:36;;;;;;;;;;;;;;;32.18;29.68;100592.25;1639421;87;20178;-75
2021/06/29 10:16:07;;;;;;;;;;;;;;;32.15;29.70;100592.58;1637651;86;20209;-75
2021/06/29 10:18:37;;;;;;;;;;;;;;;32.17;29.68;100588.41;1638484;86;20475;-75
2021/06/29 10:21:13;;;;;;;;;;;;;;;32.11;29.51;100591.23;1638936;86;20137;-76
2021/06/29 10:23:30;;;;;;;;;;;;;;;31.98;29.23;100588.20;1624461;86;20184;-76
2021/06/29 10:25:57;;;;;;;;;;;;;;;31.84;29.16;100582.14;1627292;87;20097;-76
2021/06/29 10:28:23;;;;;;;;;;;;;;;31.67;29.26;100573.72;1638813;86;20169;-76
2021/06/29 10:30:49;;;;;;;;;;;;;;;31.58;29.21;100575.03;1638827;87;20269;-76
2021/06/29 10:33:17;;;;;;;;;;;;;;;31.56;29.15;100578.36;1647280;86;20174;-76
2021/06/29 10:35:43;;;;;;;;;;;;;;;31.45;28.96;100570.62;1642778;86;20121;-76
2021/06/29 10:38:10;;;;;;;;;;;;;;;31.42;29.12;100564.27;1637872;86;20444;-76
2021/06/29 10:40:37;;;;;;;;;;;;;;;31.47;29.25;100560.61;1640133;86;20177;-76
2021/06/29 10:43:03;;;;;;;;;;;;;;;31.63;29.08;100561.67;1638650;87;20211;-75
2021/06/29 10:45:33;;;;;;;;;;;;;;;31.77;28.96;100555.70;1638551;86;20225;-75
2021/06/29 10:48:05;;;;;;;;;;;;;;;31.91;29.06;100564.44;1637313;87;20185;-75
2021/06/29 10:50:34;;;;;;;;;;;;;;;32.04;28.94;100565.30;1622699;86;20223;-75
2021/06/29 10:53:00;;;;;;;;;;;;;;;32.06;28.84;100559.29;1638428;87;20233;-75
2021/06/29 10:55:29;;;;;;;;;;;;;;;32.12;28.64;100560.80;1637950;86;20214;-75
2021/06/29 10:57:58;;;;;;;;;;;;;;;32.22;28.73;100568.71;1622984;87;20218;-75
2021/06/29 11:00:28;;;;;;;;;;;;;;;32.22;28.70;100568.71;1626292;87;20189;-74
2021/06/29 11:03:00;;;;;;;;;;;;;;;32.19;28.50;100570.34;1629060;87;20193;-75
2021/06/29 11:05:28;;;;;;;;;;;;;;;32.08;28.65;100564.81;1631326;87;20194;-75
2021/06/29 11:08:10;;;;;;;;;;;;;;;32.03;28.84;100567.14;1623376;87;36653;-75
2021/06/29 11:10:39;;;;;;;;;;;;;;;32.03;28.70;100562.30;1619469;86;20112;-75
2021/06/29 11:13:06;;;;;;;;;;;;;;;31.95;28.77;100561.77;1626079;86;20139;-75
2021/06/29 11:15:47;;;;;;;;;;;;;;;31.89;28.79;100557.92;1626551;86;20100;-75
2021/06/29 11:18:14;;;;;;;;;;;;;;;31.95;28.91;100558.27;1632183;86;20128;-75
2021/06/29 11:20:46;;;;;;;;;;;;;;;31.98;28.87;100554.76;1632227;86;20130;-75
2021/06/29 11:23:31;;;;;;;;;;;;;;;32.00;28.81;100551.92;1625180;86;20101;-75
2021/06/29 11:26:15;;;;;;;;;;;;;;;31.96;28.77;100543.39;1629419;87;20090;-75
2021/06/29 11:28:46;;;;;;;;;;;;;;;31.99;28.49;100544.89;1626274;87;20114;-75
2021/06/29 11:31:23;;;;;;;;;;;;;;;31.88;28.33;100544.70;1628115;87;20157;-75
2021/06/29 11:34:10;;;;;;;;;;;;;;;31.83;28.46;100541.19;1633757;86;20111;-75
2021/06/29 11:36:39;;;;;;;;;;;;;;;31.74;28.30;100535.48;1634795;85;20164;-75
2021/06/29 11:39:22;;;;;;;;;;;;;;;31.71;28.36;100526.48;1629280;87;20107;-75
2021/06/29 11:42:07;;;;;;;;;;;;;;;31.68;28.33;100524.13;1623647;87;20102;-75
2021/06/29 11:44:39;;;;;;;;;;;;;;;31.71;28.48;100515.78;1598681;88;20178;-74
2021/06/29 11:47:10;;;;;;;;;;;;;;;31.72;28.56;100516.09;1624167;87;20200;-74
2021/06/29 11:49:41;;;;;;;;;;;;;;;31.81;28.57;100507.58;1627705;87;20202;-74
2021/06/29 11:52:17;;;;;;;;;;;;;;;31.95;28.60;100510.11;1625512;86;20484;-75
2021/06/29 11:54:59;;;;;;;;;;;;;;;32.02;28.54;100508.45;1617128;87;20187;-75
2021/06/29 11:57:28;;;;;;;;;;;;;;;32.09;28.45;100506.29;1623246;87;20199;-75
2021/06/29 11:59:57;;;;;;;;;;;;;;;32.15;28.27;100496.77;1615351;87;20234;-75
2021/06/29 12:02:26;;;;;;;;;;;;;;;32.15;28.33;100502.95;1617204;87;20239;-75
2021/06/29 12:04:58;;;;;;;;;;;;;;;32.21;28.32;100500.94;1616502;87;20214;-75
2021/06/29 12:07:37;;;;;;;;;;;;;;;32.22;28.35;100494.63;1617920;88;20128;-76
2021/06/29 12:10:06;;;;;;;;;;;;;;;32.15;28.32;100494.92;1623737;86;20229;-75
2021/06/29 12:12:32;;;;;;;;;;;;;;;32.08;28.43;100493.91;1613792;87;20248;-75
2021/06/29 12:15:14;;;;;;;;;;;;;;;32.08;28.58;100479.70;1625110;86;20177;-75
2021/06/29 12:17:46;;;;;;;;;;;;;;;32.09;28.45;100478.70;1628099;87;20228;-75
2021/06/29 12:20:14;;;;;;;;;;;;;;;32.04;28.43;100478.36;1625125;87;20211;-75
2021/06/29 12:22:42;;;;;;;;;;;;;;;31.99;28.30;100477.52;1622972;87;20205;-75
2021/06/29 12:25:17;;;;;;;;;;;;;;;31.91;28.40;100470.33;1630620;86;20090;-76
2021/06/29 12:27:49;;;;;;;;;;;;;;;31.89;28.44;100472.83;1620054;87;20100;-75
2021/06/29 12:30:27;;;;;;;;;;;;;;;31.85;28.47;100471.48;1621233;86;20216;-75
2021/06/29 12:32:54;;;;;;;;;;;;;;;31.82;28.48;100465.13;1627100;87;20183;-75
2021/06/29 12:35:21;;;;;;;;;;;;;;;31.76;28.34;100464.45;1630063;86;20142;-75
2021/06/29 12:38:02;;;;;;;;;;;;;;;31.71;28.56;100464.14;1629539;87;20171;-75
2021/06/29 12:40:30;;;;;;;;;;;;;;;31.78;28.63;100458.44;1623822;88;20110;-75
2021/06/29 12:42:56;;;;;;;;;;;;;;;31.86;28.44;100445.08;1619270;88;20110;-73
2021/06/29 12:45:28;;;;;;;;;;;;;;;31.94;28.39;100437.06;1623220;88;20130;-74